sensor_id;sensor_type;location;lat;lon;timestamp;pressure;altitude;pressure_sealevel;temperature;humidity
75359;BME280;64046;51.978;5.934;2024-02-15T00:01:00;101546.19;;;17.36;100.00
75359;BME280;64046;51.978;5.934;2024-02-15T00:03:30;101550.53;;;17.37;100.00
75359;BME280;64046;51.978;5.934;2024-02-15T00:05:57;101541.75;;;17.37;100.00
75359;BME280;64046;51.978;5.934;2024-02-15T00:08:30;101546.09;;;17.38;100.00
75359;BME280;64046;51.978;5.934;2024-02-15T00:11:04;101541.47;;;17.56;100.00
75359;BME280;64046;51.978;5.934;2024-02-15T00:13:35;101539.84;;;17.39;100.00
75359;BME280;64046;51.978;5.934;2024-02-15T00:16:05;101542.22;;;17.43;100.00
75359;BME280;64046;51.978;5.934;2024-02-15T00:18:34;101544.97;;;17.42;100.00
75359;BME280;64046;51.978;5.934;2024-02-15T00:21:04;101542.50;;;17.53;100.00
75359;BME280;64046;51.978;5.934;2024-02-15T00:23:34;101542.69;;;17.50;100.00
75359;BME280;64046;51.978;5.934;2024-02-15T00:26:05;101545.22;;;17.66;100.00
75359;BME280;64046;51.978;5.934;2024-02-15T00:28:35;101544.31;;;17.53;100.00
75359;BME280;64046;51.978;5.934;2024-02-15T00:31:05;101541.38;;;17.57;100.00
75359;BME280;64046;51.978;5.934;2024-02-15T00:33:34;101544.94;;;17.56;100.00
75359;BME280;64046;51.978;5.934;2024-02-15T00:36:05;101542.09;;;17.59;100.00
75359;BME280;64046;51.978;5.934;2024-02-15T00:38:34;101543.81;;;17.46;100.00
75359;BME280;64046;51.978;5.934;2024-02-15T00:41:07;101540.88;;;17.65;100.00
75359;BME280;64046;51.978;5.934;2024-02-15T00:43:39;101545.03;;;17.69;100.00
75359;BME280;64046;51.978;5.934;2024-02-15T00:46:08;101540.78;;;17.52;100.00
75359;BME280;64046;51.978;5.934;2024-02-15T00:48:37;101549.22;;;17.44;100.00
75359;BME280;64046;51.978;5.934;2024-02-15T00:51:07;101555.56;;;17.42;100.00
75359;BME280;64046;51.978;5.934;2024-02-15T00:53:36;101549.69;;;17.37;100.00
75359;BME280;64046;51.978;5.934;2024-02-15T00:56:08;101547.91;;;17.52;100.00
75359;BME280;64046;51.978;5.934;2024-02-15T00:58:38;101563.78;;;17.37;100.00
75359;BME280;64046;51.978;5.934;2024-02-15T01:01:07;101562.94;;;17.37;100.00
75359;BME280;64046;51.978;5.934;2024-02-15T01:03:37;101554.31;;;17.33;100.00
75359;BME280;64046;51.978;5.934;2024-02-15T01:06:06;101557.66;;;17.37;100.00
75359;BME280;64046;51.978;5.934;2024-02-15T01:08:35;101551.78;;;17.32;100.00
75359;BME280;64046;51.978;5.934;2024-02-15T01:11:08;101553.47;;;17.47;100.00
75359;BME280;64046;51.978;5.934;2024-02-15T01:13:37;101545.81;;;17.28;100.00
75359;BME280;64046;51.978;5.934;2024-02-15T01:16:07;101546.56;;;17.30;100.00
75359;BME280;64046;51.978;5.934;2024-02-15T01:18:36;101547.41;;;17.30;100.00
75359;BME280;64046;51.978;5.934;2024-02-15T01:21:07;101546.19;;;17.51;100.00
75359;BME280;64046;51.978;5.934;2024-02-15T01:23:37;101545.25;;;17.37;100.00
75359;BME280;64046;51.978;5.934;2024-02-15T01:26:09;101539.00;;;17.53;100.00
75359;BME280;64046;51.978;5.934;2024-02-15T01:28:39;101551.38;;;17.38;100.00
75359;BME280;64046;51.978;5.934;2024-02-15T01:31:10;101551.03;;;17.44;100.00
75359;BME280;64046;51.978;5.934;2024-02-15T01:33:43;101544.41;;;17.51;100.00
75359;BME280;64046;51.978;5.934;2024-02-15T01:36:14;101546.97;;;17.53;100.00
75359;BME280;64046;51.978;5.934;2024-02-15T01:38:44;101536.56;;;17.50;100.00
75359;BME280;64046;51.978;5.934;2024-02-15T01:41:16;101533.69;;;17.67;100.00
75359;BME280;64046;51.978;5.934;2024-02-15T01:43:45;101536.47;;;17.51;100.00
75359;BME280;64046;51.978;5.934;2024-02-15T01:46:16;101529.91;;;17.57;100.00
75359;BME280;64046;51.978;5.934;2024-02-15T01:48:46;101528.88;;;17.45;100.00
75359;BME280;64046;51.978;5.934;2024-02-15T01:51:16;101519.97;;;17.46;100.00
75359;BME280;64046;51.978;5.934;2024-02-15T01:53:46;101520.38;;;17.40;100.00
75359;BME280;64046;51.978;5.934;2024-02-15T01:56:18;101522.81;;;17.57;100.00
75359;BME280;64046;51.978;5.934;2024-02-15T01:58:48;101522.72;;;17.44;100.00
75359;BME280;64046;51.978;5.934;2024-02-15T02:01:17;101527.81;;;17.47;100.00
75359;BME280;64046;51.978;5.934;2024-02-15T02:03:47;101527.19;;;17.44;100.00
75359;BME280;64046;51.978;5.934;2024-02-15T02:06:16;101529.63;;;17.47;100.00
75359;BME280;64046;51.978;5.934;2024-02-15T02:08:47;101519.13;;;17.60;100.00
75359;BME280;64046;51.978;5.934;2024-02-15T02:11:20;101527.06;;;17.74;100.00
75359;BME280;64046;51.978;5.934;2024-02-15T02:13:49;101524.63;;;17.57;100.00
75359;BME280;64046;51.978;5.934;2024-02-15T02:16:25;101526.00;;;17.77;100.00
75359;BME280;64046;51.978;5.934;2024-02-15T02:18:55;101524.88;;;17.52;100.00
75359;BME280;64046;51.978;5.934;2024-02-15T02:21:26;101529.72;;;17.60;100.00
75359;BME280;64046;51.978;5.934;2024-02-15T02:23:57;101520.44;;;17.67;100.00
75359;BME280;64046;51.978;5.934;2024-02-15T02:26:29;101510.94;;;17.77;100.00
75359;BME280;64046;51.978;5.934;2024-02-15T02:28:59;101515.44;;;17.62;100.00
75359;BME280;64046;51.978;5.934;2024-02-15T02:31:32;101508.41;;;17.76;100.00
75359;BME280;64046;51.978;5.934;2024-02-15T02:34:02;101501.88;;;17.67;100.00
75359;BME280;64046;51.978;5.934;2024-02-15T02:36:33;101500.28;;;17.64;100.00
75359;BME280;64046;51.978;5.934;2024-02-15T02:39:02;101505.69;;;17.63;100.00
75359;BME280;64046;51.978;5.934;2024-02-15T02:41:36;101501.13;;;17.79;100.00
75359;BME280;64046;51.978;5.934;2024-02-15T02:44:05;101503.97;;;17.62;100.00
75359;BME280;64046;51.978;5.934;2024-02-15T02:46:34;101494.88;;;17.66;100.00
75359;BME280;64046;51.978;5.934;2024-02-15T02:49:04;101490.44;;;17.67;100.00
75359;BME280;64046;51.978;5.934;2024-02-15T02:51:33;101492.13;;;17.68;100.00
75359;BME280;64046;51.978;5.934;2024-02-15T02:54:03;101501.88;;;17.67;100.00
75359;BME280;64046;51.978;5.934;2024-02-15T02:56:32;101496.69;;;17.66;100.00
75359;BME280;64046;51.978;5.934;2024-02-15T02:59:04;101491.16;;;17.83;100.00
75359;BME280;64046;51.978;5.934;2024-02-15T03:01:34;101492.53;;;17.61;100.00
75359;BME280;64046;51.978;5.934;2024-02-15T03:04:05;101493.56;;;17.59;100.00
75359;BME280;64046;51.978;5.934;2024-02-15T03:06:35;101492.72;;;17.58;100.00
75359;BME280;64046;51.978;5.934;2024-02-15T03:09:04;101495.47;;;17.57;100.00
75359;BME280;64046;51.978;5.934;2024-02-15T03:11:36;101495.38;;;17.58;100.00
75359;BME280;64046;51.978;5.934;2024-02-15T03:14:08;101498.75;;;17.75;100.00
75359;BME280;64046;51.978;5.934;2024-02-15T03:16:39;101496.41;;;17.56;100.00
75359;BME280;64046;51.978;5.934;2024-02-15T03:19:08;101495.56;;;17.55;100.00
75359;BME280;64046;51.978;5.934;2024-02-15T03:21:38;101490.28;;;17.55;100.00
75359;BME280;64046;51.978;5.934;2024-02-15T03:24:08;101482.13;;;17.58;100.00
75359;BME280;64046;51.978;5.934;2024-02-15T03:26:37;101480.81;;;17.51;100.00
75359;BME280;64046;51.978;5.934;2024-02-15T03:29:11;101484.84;;;17.71;100.00
75359;BME280;64046;51.978;5.934;2024-02-15T03:31:40;101480.59;;;17.54;100.00
75359;BME280;64046;51.978;5.934;2024-02-15T03:34:09;101485.91;;;17.54;100.00
75359;BME280;64046;51.978;5.934;2024-02-15T03:36:42;101483.81;;;17.59;100.00
75359;BME280;64046;51.978;5.934;2024-02-15T03:39:12;101474.47;;;17.54;100.00
75359;BME280;64046;51.978;5.934;2024-02-15T03:41:41;101488.75;;;17.51;100.00
75359;BME280;64046;51.978;5.934;2024-02-15T03:44:14;101483.34;;;17.67;100.00
75359;BME280;64046;51.978;5.934;2024-02-15T03:46:44;101481.00;;;17.48;100.00
75359;BME280;64046;51.978;5.934;2024-02-15T03:49:17;101488.09;;;17.47;100.00
75359;BME280;64046;51.978;5.934;2024-02-15T03:51:48;101489.59;;;17.52;100.00
75359;BME280;64046;51.978;5.934;2024-02-15T03:54:17;101490.94;;;17.44;100.00
75359;BME280;64046;51.978;5.934;2024-02-15T03:56:47;101487.88;;;17.51;100.00
75359;BME280;64046;51.978;5.934;2024-02-15T03:59:21;101474.81;;;17.62;100.00
75359;BME280;64046;51.978;5.934;2024-02-15T04:01:53;101474.09;;;17.45;100.00
75359;BME280;64046;51.978;5.934;2024-02-15T04:04:23;101479.59;;;17.42;100.00
75359;BME280;64046;51.978;5.934;2024-02-15T04:06:52;101478.91;;;17.39;100.00
75359;BME280;64046;51.978;5.934;2024-02-15T04:09:22;101473.41;;;17.42;100.00
75359;BME280;64046;51.978;5.934;2024-02-15T04:11:51;101468.22;;;17.40;100.00
75359;BME280;64046;51.978;5.934;2024-02-15T04:14:26;101474.47;;;17.54;100.00
75359;BME280;64046;51.978;5.934;2024-02-15T04:16:55;101469.66;;;17.32;100.00
75359;BME280;64046;51.978;5.934;2024-02-15T04:19:25;101464.44;;;17.30;100.00
75359;BME280;64046;51.978;5.934;2024-02-15T04:21:54;101467.00;;;17.32;100.00
75359;BME280;64046;51.978;5.934;2024-02-15T04:24:25;101470.44;;;17.34;100.00
75359;BME280;64046;51.978;5.934;2024-02-15T04:26:54;101465.88;;;17.36;100.00
75359;BME280;64046;51.978;5.934;2024-02-15T04:29:27;101462.06;;;17.54;100.00
75359;BME280;64046;51.978;5.934;2024-02-15T04:31:57;101462.47;;;17.34;100.00
75359;BME280;64046;51.978;5.934;2024-02-15T04:34:26;101464.34;;;17.32;100.00
75359;BME280;64046;51.978;5.934;2024-02-15T04:36:57;101459.16;;;17.30;100.00
75359;BME280;64046;51.978;5.934;2024-02-15T04:39:26;101459.16;;;17.30;100.00
75359;BME280;64046;51.978;5.934;2024-02-15T04:41:56;101452.81;;;17.33;100.00
75359;BME280;64046;51.978;5.934;2024-02-15T04:44:29;101450.78;;;17.51;100.00
75359;BME280;64046;51.978;5.934;2024-02-15T04:47:01;101448.47;;;17.32;100.00
75359;BME280;64046;51.978;5.934;2024-02-15T04:49:32;101448.25;;;17.35;100.00
75359;BME280;64046;51.978;5.934;2024-02-15T04:52:03;101446.84;;;17.29;100.00
75359;BME280;64046;51.978;5.934;2024-02-15T04:54:33;101441.84;;;17.24;100.00
75359;BME280;64046;51.978;5.934;2024-02-15T04:57:02;101445.81;;;17.32;100.00
75359;BME280;64046;51.978;5.934;2024-02-15T04:59:37;101444.06;;;17.45;100.00
75359;BME280;64046;51.978;5.934;2024-02-15T05:02:07;101441.44;;;17.30;100.00
75359;BME280;64046;51.978;5.934;2024-02-15T05:04:37;101437.38;;;17.25;100.00
75359;BME280;64046;51.978;5.934;2024-02-15T05:07:10;101438.44;;;17.37;100.00
75359;BME280;64046;51.978;5.934;2024-02-15T05:09:43;101442.03;;;17.21;100.00
75359;BME280;64046;51.978;5.934;2024-02-15T05:12:21;101428.19;;;17.45;100.00
75359;BME280;64046;51.978;5.934;2024-02-15T05:14:54;101426.88;;;17.38;100.00
75359;BME280;64046;51.978;5.934;2024-02-15T05:17:23;101427.09;;;17.20;100.00
75359;BME280;64046;51.978;5.934;2024-02-15T05:19:54;101433.53;;;17.16;100.00
75359;BME280;64046;51.978;5.934;2024-02-15T05:22:25;101437.13;;;17.15;100.00
75359;BME280;64046;51.978;5.934;2024-02-15T05:24:56;101434.59;;;17.14;100.00
75359;BME280;64046;51.978;5.934;2024-02-15T05:27:25;101433.16;;;17.08;100.00
75359;BME280;64046;51.978;5.934;2024-02-15T05:29:57;101440.03;;;17.25;100.00
75359;BME280;64046;51.978;5.934;2024-02-15T05:32:27;101435.88;;;17.06;100.00
75359;BME280;64046;51.978;5.934;2024-02-15T05:34:56;101439.78;;;17.01;100.00
75359;BME280;64046;51.978;5.934;2024-02-15T05:37:28;101424.84;;;17.00;100.00
75359;BME280;64046;51.978;5.934;2024-02-15T05:39:57;101430.31;;;16.97;100.00
75359;BME280;64046;51.978;5.934;2024-02-15T05:42:26;101442.69;;;16.96;100.00
75359;BME280;64046;51.978;5.934;2024-02-15T05:45:27;101434.75;;;17.25;100.00
75359;BME280;64046;51.978;5.934;2024-02-15T05:47:59;101433.06;;;16.95;100.00
75359;BME280;64046;51.978;5.934;2024-02-15T05:50:28;101426.06;;;16.94;100.00
75359;BME280;64046;51.978;5.934;2024-02-15T05:52:58;101427.59;;;16.98;100.00
75359;BME280;64046;51.978;5.934;2024-02-15T05:55:27;101429.25;;;16.99;100.00
75359;BME280;64046;51.978;5.934;2024-02-15T05:58:00;101434.50;;;17.01;100.00
75359;BME280;64046;51.978;5.934;2024-02-15T06:00:32;101425.66;;;17.29;100.00
75359;BME280;64046;51.978;5.934;2024-02-15T06:03:01;101408.47;;;17.07;100.00
75359;BME280;64046;51.978;5.934;2024-02-15T06:05:32;101404.78;;;16.95;100.00
75359;BME280;64046;51.978;5.934;2024-02-15T06:08:02;101389.00;;;16.94;100.00
75359;BME280;64046;51.978;5.934;2024-02-15T06:10:31;101368.13;;;16.89;100.00
75359;BME280;64046;51.978;5.934;2024-02-15T06:13:01;101354.56;;;16.80;100.00
75359;BME280;64046;51.978;5.934;2024-02-15T06:15:33;101339.84;;;16.90;100.00
75359;BME280;64046;51.978;5.934;2024-02-15T06:18:05;101324.88;;;16.74;100.00
75359;BME280;64046;51.978;5.934;2024-02-15T06:20:36;101326.97;;;16.69;100.00
75359;BME280;64046;51.978;5.934;2024-02-15T06:23:06;101343.22;;;16.77;100.00
75359;BME280;64046;51.978;5.934;2024-02-15T06:25:36;101338.41;;;16.70;100.00
75359;BME280;64046;51.978;5.934;2024-02-15T06:28:05;101343.88;;;16.81;100.00
75359;BME280;64046;51.978;5.934;2024-02-15T06:31:04;101352.59;;;16.98;100.00
75359;BME280;64046;51.978;5.934;2024-02-15T06:33:46;101367.81;;;16.80;100.00
75359;BME280;64046;51.978;5.934;2024-02-15T06:36:28;101367.72;;;16.81;100.00
75359;BME280;64046;51.978;5.934;2024-02-15T06:39:09;101386.13;;;16.83;100.00
75359;BME280;64046;51.978;5.934;2024-02-15T06:41:51;101380.66;;;16.86;100.00
75359;BME280;64046;51.978;5.934;2024-02-15T06:44:21;101388.50;;;16.87;100.00
75359;BME280;64046;51.978;5.934;2024-02-15T06:46:52;101398.81;;;17.06;100.00
75359;BME280;64046;51.978;5.934;2024-02-15T06:49:23;101395.91;;;16.97;100.00
75359;BME280;64046;51.978;5.934;2024-02-15T06:51:53;101400.88;;;16.87;100.00
75359;BME280;64046;51.978;5.934;2024-02-15T06:54:23;101401.72;;;16.87;100.00
75359;BME280;64046;51.978;5.934;2024-02-15T06:56:53;101405.09;;;16.91;100.00
75359;BME280;64046;51.978;5.934;2024-02-15T06:59:23;101402.16;;;16.95;100.00
75359;BME280;64046;51.978;5.934;2024-02-15T07:01:57;101403.53;;;17.16;100.00
75359;BME280;64046;51.978;5.934;2024-02-15T07:04:26;101402.78;;;16.99;100.00
75359;BME280;64046;51.978;5.934;2024-02-15T07:06:56;101394.84;;;16.99;100.00
75359;BME280;64046;51.978;5.934;2024-02-15T07:09:26;101391.94;;;17.04;100.00
75359;BME280;64046;51.978;5.934;2024-02-15T07:11:56;101384.28;;;17.14;100.00
75359;BME280;64046;51.978;5.934;2024-02-15T07:14:26;101378.97;;;16.99;100.00
75359;BME280;64046;51.978;5.934;2024-02-15T07:16:58;101368.44;;;17.12;100.00
75359;BME280;64046;51.978;5.934;2024-02-15T07:19:28;101375.09;;;16.90;100.00
75359;BME280;64046;51.978;5.934;2024-02-15T07:22:02;101377.66;;;16.92;100.00
75359;BME280;64046;51.978;5.934;2024-02-15T07:24:31;101382.19;;;16.90;100.00
75359;BME280;64046;51.978;5.934;2024-02-15T07:27:01;101385.50;;;16.93;100.00
75359;BME280;64046;51.978;5.934;2024-02-15T07:29:31;101381.53;;;17.01;100.00
75359;BME280;64046;51.978;5.934;2024-02-15T07:32:04;101391.03;;;17.18;100.00
75359;BME280;64046;51.978;5.934;2024-02-15T07:34:34;101396.47;;;17.02;100.00
75359;BME280;64046;51.978;5.934;2024-02-15T07:37:04;101391.84;;;17.05;100.00
75359;BME280;64046;51.978;5.934;2024-02-15T07:39:33;101400.63;;;17.06;100.00
75359;BME280;64046;51.978;5.934;2024-02-15T07:42:03;101397.69;;;17.10;100.00
75359;BME280;64046;51.978;5.934;2024-02-15T07:44:35;101393.69;;;17.18;100.00
75359;BME280;64046;51.978;5.934;2024-02-15T07:47:07;101400.78;;;17.32;100.00
75359;BME280;64046;51.978;5.934;2024-02-15T07:49:36;101395.69;;;17.14;100.00
75359;BME280;64046;51.978;5.934;2024-02-15T07:52:06;101381.69;;;17.12;100.00
75359;BME280;64046;51.978;5.934;2024-02-15T07:54:35;101381.78;;;17.10;100.00
75359;BME280;64046;51.978;5.934;2024-02-15T07:57:04;101387.28;;;17.07;100.00
75359;BME280;64046;51.978;5.934;2024-02-15T07:59:35;101395.13;;;17.09;100.00
75359;BME280;64046;51.978;5.934;2024-02-15T08:02:08;101392.34;;;17.25;100.00
75359;BME280;64046;51.978;5.934;2024-02-15T08:04:38;101398.66;;;17.09;100.00
75359;BME280;64046;51.978;5.934;2024-02-15T08:07:10;101401.19;;;17.11;100.00
75359;BME280;64046;51.978;5.934;2024-02-15T08:09:41;101413.00;;;17.20;100.00
75359;BME280;64046;51.978;5.934;2024-02-15T08:12:11;101418.75;;;17.12;100.00
75359;BME280;64046;51.978;5.934;2024-02-15T08:14:40;101417.81;;;17.13;100.00
75359;BME280;64046;51.978;5.934;2024-02-15T08:17:12;101419.22;;;17.33;100.00
75359;BME280;64046;51.978;5.934;2024-02-15T08:19:42;101423.50;;;17.21;100.00
75359;BME280;64046;51.978;5.934;2024-02-15T08:22:11;101420.56;;;17.26;100.00
75359;BME280;64046;51.978;5.934;2024-02-15T08:24:42;101425.66;;;17.29;100.00
75359;BME280;64046;51.978;5.934;2024-02-15T08:27:13;101424.63;;;17.32;100.00
75359;BME280;64046;51.978;5.934;2024-02-15T08:29:43;101419.03;;;17.36;100.00
75359;BME280;64046;51.978;5.934;2024-02-15T08:32:17;101426.25;;;17.61;100.00
75359;BME280;64046;51.978;5.934;2024-02-15T08:34:46;101424.59;;;17.46;100.00
75359;BME280;64046;51.978;5.934;2024-02-15T08:37:16;101424.97;;;17.54;100.00
75359;BME280;64046;51.978;5.934;2024-02-15T08:39:46;101429.97;;;17.59;100.00
75359;BME280;64046;51.978;5.934;2024-02-15T08:42:15;101432.19;;;17.65;100.00
75359;BME280;64046;51.978;5.934;2024-02-15T08:44:48;101433.19;;;17.64;100.00
75359;BME280;64046;51.978;5.934;2024-02-15T08:47:20;101435.47;;;17.83;100.00
75359;BME280;64046;51.978;5.934;2024-02-15T08:49:50;101430.53;;;17.64;100.00
75359;BME280;64046;51.978;5.934;2024-02-15T08:52:19;101436.56;;;17.66;100.00
75359;BME280;64046;51.978;5.934;2024-02-15T08:54:49;101416.97;;;17.69;100.00
75359;BME280;64046;51.978;5.934;2024-02-15T08:57:18;101406.47;;;17.67;100.00
75359;BME280;64046;51.978;5.934;2024-02-15T08:59:49;101405.53;;;17.68;100.00
75359;BME280;64046;51.978;5.934;2024-02-15T09:02:21;101396.84;;;17.79;100.00
75359;BME280;64046;51.978;5.934;2024-02-15T09:04:50;101402.06;;;17.53;100.00
75359;BME280;64046;51.978;5.934;2024-02-15T09:07:19;101400.84;;;17.44;100.00
75359;BME280;64046;51.978;5.934;2024-02-15T09:09:49;101397.47;;;17.42;100.00
75359;BME280;64046;51.978;5.934;2024-02-15T09:12:18;101398.31;;;17.43;100.00
75359;BME280;64046;51.978;5.934;2024-02-15T09:14:49;101410.56;;;17.58;100.00
75359;BME280;64046;51.978;5.934;2024-02-15T09:17:23;101421.53;;;17.67;100.00
75359;BME280;64046;51.978;5.934;2024-02-15T09:19:52;101412.13;;;17.48;100.00
75359;BME280;64046;51.978;5.934;2024-02-15T09:22:22;101393.00;;;17.43;100.00
75359;BME280;64046;51.978;5.934;2024-02-15T09:24:51;101402.84;;;17.41;100.00
75359;BME280;64046;51.978;5.934;2024-02-15T09:27:22;101400.41;;;17.23;100.00
75359;BME280;64046;51.978;5.934;2024-02-15T09:29:51;101403.34;;;17.19;100.00
75359;BME280;64046;51.978;5.934;2024-02-15T09:32:24;101398.81;;;17.35;100.00
75359;BME280;64046;51.978;5.934;2024-02-15T09:34:54;101406.41;;;17.12;100.00
75359;BME280;64046;51.978;5.934;2024-02-15T09:37:23;101409.41;;;17.06;100.00
75359;BME280;64046;51.978;5.934;2024-02-15T09:39:54;101403.16;;;17.07;100.00
75359;BME280;64046;51.978;5.934;2024-02-15T09:42:25;101396.25;;;17.05;100.00
75359;BME280;64046;51.978;5.934;2024-02-15T09:44:54;101394.84;;;16.99;100.00
75359;BME280;64046;51.978;5.934;2024-02-15T09:47:27;101386.72;;;17.17;100.00
75359;BME280;64046;51.978;5.934;2024-02-15T09:49:59;101397.34;;;17.02;100.00
75359;BME280;64046;51.978;5.934;2024-02-15T09:52:29;101391.94;;;17.04;100.00
75359;BME280;64046;51.978;5.934;2024-02-15T09:55:03;101390.81;;;17.08;100.00
75359;BME280;64046;51.978;5.934;2024-02-15T09:57:36;101394.00;;;16.99;100.00
75359;BME280;64046;51.978;5.934;2024-02-15T10:00:07;101383.13;;;17.03;100.00
75359;BME280;64046;51.978;5.934;2024-02-15T10:02:44;101387.09;;;17.10;100.00
75359;BME280;64046;51.978;5.934;2024-02-15T10:05:14;101391.75;;;16.92;100.00
75359;BME280;64046;51.978;5.934;2024-02-15T10:07:44;101387.78;;;17.00;100.00
75359;BME280;64046;51.978;5.934;2024-02-15T10:10:15;101376.41;;;16.98;100.00
75359;BME280;64046;51.978;5.934;2024-02-15T10:12:46;101383.19;;;16.87;100.00
75359;BME280;64046;51.978;5.934;2024-02-15T10:15:28;101386.81;;;17.15;100.00
75359;BME280;64046;51.978;5.934;2024-02-15T10:18:04;101370.66;;;17.05;100.00
75359;BME280;64046;51.978;5.934;2024-02-15T10:20:35;101376.72;;;16.93;100.00
75359;BME280;64046;51.978;5.934;2024-02-15T10:23:10;101381.22;;;17.20;100.00
75359;BME280;64046;51.978;5.934;2024-02-15T10:25:40;101385.31;;;17.11;100.00
75359;BME280;64046;51.978;5.934;2024-02-15T10:28:12;101387.16;;;17.23;100.00
75359;BME280;64046;51.978;5.934;2024-02-15T10:30:43;101381.88;;;17.09;100.00
75359;BME280;64046;51.978;5.934;2024-02-15T10:33:26;101381.41;;;17.31;100.00
75359;BME280;64046;51.978;5.934;2024-02-15T10:36:05;101382.03;;;17.35;100.00
75359;BME280;64046;51.978;5.934;2024-02-15T10:38:35;101374.53;;;17.14;100.00
75359;BME280;64046;51.978;5.934;2024-02-15T10:41:06;101382.84;;;17.22;100.00
75359;BME280;64046;51.978;5.934;2024-02-15T10:43:37;101385.66;;;17.19;100.00
75359;BME280;64046;51.978;5.934;2024-02-15T10:46:06;101384.63;;;17.22;100.00
75359;BME280;64046;51.978;5.934;2024-02-15T10:48:39;101383.34;;;17.42;100.00
75359;BME280;64046;51.978;5.934;2024-02-15T10:51:12;101383.81;;;17.49;100.00
75359;BME280;64046;51.978;5.934;2024-02-15T10:53:47;101374.72;;;17.53;100.00
75359;BME280;64046;51.978;5.934;2024-02-15T10:56:26;101381.63;;;17.55;100.00
75359;BME280;64046;51.978;5.934;2024-02-15T10:59:02;101379.91;;;17.54;100.00
75359;BME280;64046;51.978;5.934;2024-02-15T11:01:35;101377.66;;;17.48;100.00
75359;BME280;64046;51.978;5.934;2024-02-15T11:04:08;101374.63;;;17.54;100.00
75359;BME280;64046;51.978;5.934;2024-02-15T11:06:42;101373.09;;;17.50;100.00
75359;BME280;64046;51.978;5.934;2024-02-15T11:09:12;101366.91;;;17.37;100.00
75359;BME280;64046;51.978;5.934;2024-02-15T11:11:42;101360.91;;;17.47;100.00
75359;BME280;64046;51.978;5.934;2024-02-15T11:14:26;101361.66;;;17.77;100.00
75359;BME280;64046;51.978;5.934;2024-02-15T11:16:56;101358.16;;;17.49;100.00
75359;BME280;64046;51.978;5.934;2024-02-15T11:19:47;101355.22;;;17.81;100.00
75359;BME280;64046;51.978;5.934;2024-02-15T11:22:16;101364.94;;;17.53;100.00
75359;BME280;64046;51.978;5.934;2024-02-15T11:24:47;101365.88;;;17.67;100.00
75359;BME280;64046;51.978;5.934;2024-02-15T11:27:24;101366.34;;;17.86;100.00
75359;BME280;64046;51.978;5.934;2024-02-15T11:29:56;101361.00;;;17.73;100.00
75359;BME280;64046;51.978;5.934;2024-02-15T11:32:40;101353.25;;;17.97;100.00
75359;BME280;64046;51.978;5.934;2024-02-15T11:35:13;101352.69;;;17.92;100.00
75359;BME280;64046;51.978;5.934;2024-02-15T11:37:56;101352.00;;;18.03;100.00
75359;BME280;64046;51.978;5.934;2024-02-15T11:41:00;101358.81;;;18.20;100.00
75359;BME280;64046;51.978;5.934;2024-02-15T11:43:45;101350.31;;;18.28;100.00
75359;BME280;64046;51.978;5.934;2024-02-15T11:46:16;101348.78;;;17.98;100.00
75359;BME280;64046;51.978;5.934;2024-02-15T11:48:47;101336.59;;;17.95;100.00
75359;BME280;64046;51.978;5.934;2024-02-15T11:51:30;101337.72;;;18.31;100.00
75359;BME280;64046;51.978;5.934;2024-02-15T11:54:04;101330.56;;;18.19;100.00
75359;BME280;64046;51.978;5.934;2024-02-15T11:56:54;101328.38;;;18.52;100.00
75359;BME280;64046;51.978;5.934;2024-02-15T11:59:40;101312.88;;;18.45;100.00
75359;BME280;64046;51.978;5.934;2024-02-15T12:02:20;101315.53;;;18.32;100.00
75359;BME280;64046;51.978;5.934;2024-02-15T12:05:03;101319.47;;;18.53;100.00
75359;BME280;64046;51.978;5.934;2024-02-15T12:07:56;101310.72;;;18.63;100.00
75359;BME280;64046;51.978;5.934;2024-02-15T12:10:38;101312.00;;;18.45;100.00
75359;BME280;64046;51.978;5.934;2024-02-15T12:13:20;101310.63;;;18.52;100.00
75359;BME280;64046;51.978;5.934;2024-02-15T12:16:02;101308.50;;;18.57;100.00
75359;BME280;64046;51.978;5.934;2024-02-15T12:18:44;101293.97;;;18.63;100.00
75359;BME280;64046;51.978;5.934;2024-02-15T12:21:22;101301.44;;;18.82;100.00
75359;BME280;64046;51.978;5.934;2024-02-15T12:23:55;101302.00;;;18.87;100.00
75359;BME280;64046;51.978;5.934;2024-02-15T12:26:25;101297.31;;;18.78;100.00
75359;BME280;64046;51.978;5.934;2024-02-15T12:28:56;101298.69;;;18.83;100.00
75359;BME280;64046;51.978;5.934;2024-02-15T12:31:28;101291.06;;;18.92;100.00
75359;BME280;64046;51.978;5.934;2024-02-15T12:34:01;101290.91;;;19.06;100.00
75359;BME280;64046;51.978;5.934;2024-02-15T12:36:32;101286.91;;;18.88;100.00
75359;BME280;64046;51.978;5.934;2024-02-15T12:39:07;101279.31;;;19.07;100.00
75359;BME280;64046;51.978;5.934;2024-02-15T12:41:41;101274.66;;;18.98;100.00
75359;BME280;64046;51.978;5.934;2024-02-15T12:44:17;101261.50;;;18.83;100.00
75359;BME280;64046;51.978;5.934;2024-02-15T12:46:46;101259.81;;;18.82;100.00
75359;BME280;64046;51.978;5.934;2024-02-15T12:49:28;101258.78;;;19.09;100.00
75359;BME280;64046;51.978;5.934;2024-02-15T12:55:10;101257.72;;;19.12;100.00
75359;BME280;64046;51.978;5.934;2024-02-15T12:57:40;101257.78;;;18.99;100.00
75359;BME280;64046;51.978;5.934;2024-02-15T13:00:08;101253.59;;;19.08;100.00
75359;BME280;64046;51.978;5.934;2024-02-15T13:02:44;101249.66;;;19.13;100.00
75359;BME280;64046;51.978;5.934;2024-02-15T13:05:15;101243.38;;;19.14;100.00
75359;BME280;64046;51.978;5.934;2024-02-15T13:07:45;101247.28;;;19.22;100.00